Time;durP1;ratioP1;P1;durP2;ratioP2;P2;SDS_P1;SDS_P2;PMS_P1;PMS_P2;Temp;Humidity;BMP_temperature;BMP_pressure;BME280_temperature;BME280_humidity;BME280_pressure;Samples;Min_cycle;Max_cycle;Signal;HPM_P1;HPM_P2
2022/06/18 00:00:16;;;;;;;;;2.50;2.50;;;;;;;;5029907;28;8882;-78
2022/06/18 00:02:43;;;;;;;;;6.75;6.75;;;;;;;;5030587;28;8876;-79
2022/06/18 00:05:14;;;;;;;;;8.00;8.00;;;;;;;;5034985;28;9047;-79
2022/06/18 00:07:44;;;;;;;;;8.00;8.00;;;;;;;;5027071;28;8854;-78
2022/06/18 00:10:15;;;;;;;;;7.00;7.00;;;;;;;;5029390;28;8884;-79
2022/06/18 00:15:31;;;;;;;;;5.75;5.75;;;;;;;;5026226;28;8862;-79
2022/06/18 00:17:59;;;;;;;;;7.50;7.50;;;;;;;;5030147;28;8874;-78
2022/06/18 00:20:30;;;;;;;;;6.00;6.00;;;;;;;;5025226;28;8876;-79
2022/06/18 00:23:00;;;;;;;;;8.25;7.00;;;;;;;;5028942;28;9587;-80
2022/06/18 00:25:30;;;;;;;;;6.00;6.00;;;;;;;;5022791;28;8855;-79
2022/06/18 00:27:58;;;;;;;;;4.00;4.00;;;;;;;;5025053;28;8867;-78
2022/06/18 00:30:27;;;;;;;;;6.75;6.75;;;;;;;;5025492;28;8791;-79
2022/06/18 00:32:55;;;;;;;;;6.00;6.00;;;;;;;;5026785;28;8864;-79
2022/06/18 00:35:22;;;;;;;;;8.25;7.50;;;;;;;;5027926;28;8856;-78
2022/06/18 00:37:55;;;;;;;;;6.00;6.00;;;;;;;;5013430;28;8870;-79
2022/06/18 00:40:26;;;;;;;;;6.25;6.25;;;;;;;;5030253;28;8870;-80
2022/06/18 00:42:54;;;;;;;;;7.00;7.00;;;;;;;;5033246;28;8873;-79
2022/06/18 00:45:25;;;;;;;;;8.00;8.00;;;;;;;;5027776;28;8869;-79
2022/06/18 00:48:01;;;;;;;;;7.50;7.00;;;;;;;;5026209;28;8892;-79
2022/06/18 00:50:32;;;;;;;;;8.25;6.00;;;;;;;;5022211;28;8890;-79
2022/06/18 00:53:06;;;;;;;;;6.25;6.25;;;;;;;;5033614;28;8856;-78
2022/06/18 00:55:37;;;;;;;;;6.00;4.25;;;;;;;;5021909;28;9600;-81
2022/06/18 00:58:09;;;;;;;;;6.75;6.75;;;;;;;;5023233;28;8860;-79
2022/06/18 01:00:40;;;;;;;;;7.00;7.00;;;;;;;;5023019;28;8931;-79
2022/06/18 01:03:21;;;;;;;;;7.00;7.00;;;;;;;;5013031;28;8854;-79
2022/06/18 01:05:48;;;;;;;;;6.75;6.75;;;;;;;;5019068;28;8862;-79
2022/06/18 01:08:19;;;;;;;;;8.50;7.50;;;;;;;;5020225;28;8846;-80
2022/06/18 01:10:50;;;;;;;;;7.00;7.00;;;;;;;;5036424;28;8894;-80
2022/06/18 01:13:20;;;;;;;;;6.00;6.00;;;;;;;;5030158;28;8850;-80
2022/06/18 01:15:48;;;;;;;;;5.00;5.00;;;;;;;;5032002;28;8879;-80
2022/06/18 01:18:16;;;;;;;;;6.00;6.00;;;;;;;;5029356;28;8912;-80
2022/06/18 01:20:47;;;;;;;;;5.00;5.00;;;;;;;;5012920;28;8864;-79
2022/06/18 01:23:19;;;;;;;;;5.75;5.75;;;;;;;;5027741;28;9019;-80
2022/06/18 01:25:49;;;;;;;;;7.50;7.50;;;;;;;;5021075;28;8898;-78
2022/06/18 01:28:18;;;;;;;;;5.00;5.00;;;;;;;;5007664;28;8878;-79
2022/06/18 01:30:45;;;;;;;;;8.00;8.00;;;;;;;;5027627;28;8796;-79
2022/06/18 01:33:13;;;;;;;;;5.25;5.25;;;;;;;;5024722;28;8866;-79
2022/06/18 01:35:44;;;;;;;;;9.00;7.25;;;;;;;;5030511;28;8863;-79
2022/06/18 01:38:11;;;;;;;;;5.00;5.00;;;;;;;;5023519;28;8858;-79
2022/06/18 01:40:43;;;;;;;;;5.00;5.00;;;;;;;;5006693;28;8856;-80
2022/06/18 01:43:15;;;;;;;;;7.25;6.75;;;;;;;;5030027;28;8884;-79
2022/06/18 01:45:43;;;;;;;;;9.75;8.75;;;;;;;;5029240;28;8866;-79
2022/06/18 01:48:17;;;;;;;;;6.50;6.50;;;;;;;;5015887;28;9040;-79
2022/06/18 01:50:48;;;;;;;;;6.00;6.00;;;;;;;;5029378;28;8886;-80
2022/06/18 01:53:19;;;;;;;;;6.00;6.00;;;;;;;;5035833;28;8963;-81
2022/06/18 01:55:50;;;;;;;;;6.75;6.25;;;;;;;;5031073;28;8872;-79
2022/06/18 01:58:22;;;;;;;;;8.00;7.75;;;;;;;;5026786;28;8875;-80
2022/06/18 02:00:52;;;;;;;;;8.25;8.25;;;;;;;;5026322;28;8821;-80
2022/06/18 02:03:20;;;;;;;;;7.25;7.25;;;;;;;;5037851;28;8968;-79
2022/06/18 02:05:47;;;;;;;;;8.50;8.00;;;;;;;;5035459;28;8884;-79
2022/06/18 02:08:18;;;;;;;;;7.00;7.00;;;;;;;;5030311;28;8847;-79
2022/06/18 02:10:48;;;;;;;;;8.25;6.75;;;;;;;;5028933;28;8850;-79
2022/06/18 02:13:18;;;;;;;;;7.25;7.25;;;;;;;;5032675;28;8927;-79
2022/06/18 02:15:47;;;;;;;;;9.00;7.00;;;;;;;;5033208;28;8860;-78
2022/06/18 02:18:16;;;;;;;;;8.50;8.50;;;;;;;;5030422;28;8872;-77
2022/06/18 02:20:46;;;;;;;;;7.25;7.25;;;;;;;;5033893;28;8955;-80
2022/06/18 02:23:13;;;;;;;;;7.25;6.00;;;;;;;;5036424;28;8878;-79
2022/06/18 02:25:41;;;;;;;;;7.25;7.25;;;;;;;;5032502;28;8860;-79
2022/06/18 02:28:15;;;;;;;;;8.25;8.25;;;;;;;;5014912;28;8890;-79
2022/06/18 02:30:44;;;;;;;;;8.25;6.00;;;;;;;;5032199;28;8788;-80
2022/06/18 02:33:31;;;;;;;;;7.00;7.00;;;;;;;;5031180;28;8885;-80
2022/06/18 02:36:01;;;;;;;;;7.00;7.00;;;;;;;;5029591;28;8897;-78
2022/06/18 02:38:31;;;;;;;;;6.50;6.50;;;;;;;;5025651;28;8886;-79
2022/06/18 02:40:59;;;;;;;;;6.00;6.00;;;;;;;;5025432;28;8987;-79
2022/06/18 02:43:26;;;;;;;;;7.00;7.00;;;;;;;;5026218;28;8866;-81
2022/06/18 02:45:57;;;;;;;;;7.25;7.25;;;;;;;;5029789;28;8899;-80
2022/06/18 02:48:28;;;;;;;;;6.00;6.00;;;;;;;;5029960;28;8918;-81
2022/06/18 02:50:57;;;;;;;;;7.25;7.25;;;;;;;;5032333;28;8895;-78
2022/06/18 02:53:25;;;;;;;;;7.50;7.50;;;;;;;;5027016;28;8842;-78
2022/06/18 02:55:55;;;;;;;;;7.00;7.00;;;;;;;;5025396;28;8883;-79
2022/06/18 02:58:24;;;;;;;;;8.25;6.75;;;;;;;;5022286;28;8971;-79
2022/06/18 03:00:55;;;;;;;;;7.00;7.00;;;;;;;;5028141;28;8808;-81
2022/06/18 03:03:24;;;;;;;;;7.50;7.50;;;;;;;;5033755;28;8891;-79
2022/06/18 03:05:53;;;;;;;;;7.00;7.00;;;;;;;;5029710;28;8899;-79
2022/06/18 03:08:20;;;;;;;;;7.75;6.25;;;;;;;;5032912;28;8909;-80
2022/06/18 03:13:33;;;;;;;;;6.00;6.00;;;;;;;;5011820;28;8818;-80
2022/06/18 03:16:01;;;;;;;;;7.00;7.00;;;;;;;;5024471;28;8864;-80
2022/06/18 03:18:31;;;;;;;;;5.50;5.50;;;;;;;;5028588;28;8891;-80
2022/06/18 03:21:03;;;;;;;;;6.00;6.00;;;;;;;;5038950;28;8956;-82
2022/06/18 03:23:31;;;;;;;;;9.00;9.00;;;;;;;;5027128;28;8872;-81
2022/06/18 03:25:59;;;;;;;;;8.00;8.00;;;;;;;;5030099;28;9416;-82
2022/06/18 03:28:27;;;;;;;;;8.75;7.00;;;;;;;;5027652;28;8880;-79
2022/06/18 03:30:55;;;;;;;;;4.50;4.50;;;;;;;;5019784;28;9831;-80
2022/06/18 03:33:24;;;;;;;;;8.75;6.75;;;;;;;;5031788;28;8854;-79
2022/06/18 03:35:52;;;;;;;;;7.00;6.75;;;;;;;;5032124;28;8890;-79
2022/06/18 03:38:21;;;;;;;;;7.33;7.33;;;;;;;;4982614;28;1349027;-81
2022/06/18 03:40:51;;;;;;;;;7.25;7.25;;;;;;;;5032645;28;8873;-79
2022/06/18 03:43:19;;;;;;;;;7.50;7.50;;;;;;;;5031740;28;8915;-81
2022/06/18 03:45:48;;;;;;;;;6.00;6.00;;;;;;;;5031234;28;8852;-80
2022/06/18 03:48:21;;;;;;;;;8.00;8.00;;;;;;;;5030443;28;8944;-79
2022/06/18 03:50:51;;;;;;;;;4.50;4.25;;;;;;;;5012165;28;8850;-78
2022/06/18 03:53:18;;;;;;;;;7.75;6.25;;;;;;;;5032571;28;8891;-80
2022/06/18 03:55:46;;;;;;;;;8.00;6.75;;;;;;;;5032917;28;8860;-81
2022/06/18 03:58:14;;;;;;;;;5.75;5.75;;;;;;;;5008775;28;8925;-81
2022/06/18 04:00:42;;;;;;;;;7.00;7.00;;;;;;;;5028963;28;8854;-82
2022/06/18 04:03:09;;;;;;;;;5.50;5.50;;;;;;;;5030948;28;8866;-80
2022/06/18 04:05:38;;;;;;;;;7.75;7.75;;;;;;;;5029372;28;8888;-81
2022/06/18 04:08:10;;;;;;;;;6.00;6.00;;;;;;;;5028984;28;8858;-81
2022/06/18 04:10:37;;;;;;;;;7.00;7.00;;;;;;;;5027014;28;9020;-81
2022/06/18 04:13:04;;;;;;;;;5.50;5.50;;;;;;;;5028808;28;8866;-81
2022/06/18 04:15:31;;;;;;;;;6.50;6.50;;;;;;;;5025852;28;8862;-81
2022/06/18 04:17:59;;;;;;;;;5.25;5.25;;;;;;;;5006141;28;8878;-80
2022/06/18 04:20:29;;;;;;;;;7.00;7.00;;;;;;;;5035828;28;8844;-81
2022/06/18 04:22:57;;;;;;;;;6.25;6.25;;;;;;;;5030896;28;8883;-81
2022/06/18 04:25:26;;;;;;;;;5.75;5.75;;;;;;;;5030590;28;8865;-82
2022/06/18 04:27:56;;;;;;;;;6.75;5.50;;;;;;;;5031758;28;8925;-81
2022/06/18 04:30:25;;;;;;;;;8.50;6.50;;;;;;;;5029880;28;9626;-78
2022/06/18 04:32:52;;;;;;;;;5.50;5.50;;;;;;;;5028711;28;8880;-79
2022/06/18 04:35:20;;;;;;;;;7.00;6.00;;;;;;;;5034817;28;8852;-79
2022/06/18 04:37:48;;;;;;;;;7.75;6.00;;;;;;;;5009552;28;8997;-79
2022/06/18 04:40:19;;;;;;;;;5.00;5.00;;;;;;;;5027640;28;8880;-81
2022/06/18 04:42:48;;;;;;;;;6.25;6.25;;;;;;;;5030081;28;8878;-81
2022/06/18 04:45:16;;;;;;;;;5.00;5.00;;;;;;;;5033245;28;8867;-80
2022/06/18 04:47:43;;;;;;;;;4.25;4.25;;;;;;;;5008124;28;8885;-81
2022/06/18 04:50:17;;;;;;;;;6.25;6.00;;;;;;;;5038983;28;8860;-81
2022/06/18 04:52:47;;;;;;;;;6.75;6.75;;;;;;;;5030415;28;8869;-80
2022/06/18 04:55:15;;;;;;;;;5.25;5.25;;;;;;;;5031938;28;8850;-81
2022/06/18 04:57:42;;;;;;;;;8.00;8.00;;;;;;;;5027915;28;9007;-81
2022/06/18 05:00:12;;;;;;;;;5.00;5.00;;;;;;;;5031675;28;8979;-81
2022/06/18 05:02:40;;;;;;;;;6.25;6.25;;;;;;;;5027241;28;8860;-82
2022/06/18 05:05:11;;;;;;;;;5.75;5.75;;;;;;;;5036376;28;8891;-82
2022/06/18 05:07:39;;;;;;;;;5.00;5.00;;;;;;;;5014768;28;8866;-82
2022/06/18 05:10:07;;;;;;;;;5.00;5.00;;;;;;;;5031279;28;8895;-82
2022/06/18 05:12:34;;;;;;;;;5.25;5.25;;;;;;;;5031094;28;8876;-81
2022/06/18 05:15:02;;;;;;;;;6.50;6.50;;;;;;;;5033233;28;8875;-80
2022/06/18 05:17:33;;;;;;;;;5.75;5.00;;;;;;;;5030384;28;8944;-80
2022/06/18 05:20:00;;;;;;;;;7.50;7.25;;;;;;;;5022766;28;8900;-80
2022/06/18 05:22:28;;;;;;;;;5.00;5.00;;;;;;;;5025513;28;8977;-81
2022/06/18 05:24:56;;;;;;;;;8.00;8.00;;;;;;;;5019631;28;8894;-80
2022/06/18 05:27:27;;;;;;;;;8.00;7.00;;;;;;;;5022721;28;8868;-80
2022/06/18 05:29:55;;;;;;;;;6.60;6.60;;;;;;;;5017063;28;8900;-82
2022/06/18 05:32:22;;;;;;;;;9.00;9.00;;;;;;;;5021052;28;8822;-81
2022/06/18 05:34:52;;;;;;;;;6.60;6.60;;;;;;;;5013442;28;8894;-81
2022/06/18 05:37:23;;;;;;;;;8.00;7.00;;;;;;;;5001140;28;8933;-81
2022/06/18 05:39:50;;;;;;;;;9.80;8.60;;;;;;;;5023031;28;8862;-81
2022/06/18 05:42:18;;;;;;;;;9.00;9.00;;;;;;;;5027460;28;9624;-80
2022/06/18 05:44:45;;;;;;;;;8.00;8.00;;;;;;;;5023726;28;8858;-82
2022/06/18 05:47:15;;;;;;;;;8.60;8.60;;;;;;;;5023827;28;8866;-83
2022/06/18 05:49:43;;;;;;;;;15.40;14.20;;;;;;;;5029373;28;8881;-81
2022/06/18 05:52:12;;;;;;;;;13.00;13.00;;;;;;;;5026401;28;8866;-80
2022/06/18 05:54:42;;;;;;;;;17.60;16.40;;;;;;;;5023993;28;8847;-80
2022/06/18 05:57:10;;;;;;;;;15.40;13.40;;;;;;;;5021750;28;9001;-84
2022/06/18 05:59:38;;;;;;;;;14.60;12.80;;;;;;;;5021478;28;8896;-83
2022/06/18 06:02:06;;;;;;;;;16.40;15.20;;;;;;;;5011595;28;8962;-81
2022/06/18 06:04:33;;;;;;;;;15.80;14.00;;;;;;;;5020694;28;8925;-76
2022/06/18 06:07:01;;;;;;;;;10.80;10.80;;;;;;;;5022657;28;9008;-73
2022/06/18 06:12:15;;;;;;;;;4.40;4.40;;;;;;;;5022395;28;9572;-82
2022/06/18 06:14:43;;;;;;;;;5.80;5.80;;;;;;;;5013868;28;8909;-79
2022/06/18 06:17:16;;;;;;;;;5.20;5.20;;;;;;;;5025692;28;8870;-80
2022/06/18 06:19:43;;;;;;;;;8.00;8.00;;;;;;;;5016252;28;8906;-78
2022/06/18 06:22:11;;;;;;;;;6.40;5.80;;;;;;;;5023453;28;8838;-76
2022/06/18 06:24:40;;;;;;;;;7.80;7.00;;;;;;;;5024216;28;9022;-75
2022/06/18 06:27:07;;;;;;;;;6.00;6.00;;;;;;;;5032957;28;8862;-78
2022/06/18 06:29:34;;;;;;;;;6.00;6.00;;;;;;;;5023840;28;8842;-81
2022/06/18 06:32:01;;;;;;;;;6.00;6.00;;;;;;;;5030742;28;8827;-78
2022/06/18 06:34:29;;;;;;;;;6.40;6.40;;;;;;;;5011368;28;8846;-74
2022/06/18 06:36:56;;;;;;;;;5.80;5.80;;;;;;;;5027964;28;8834;-75
2022/06/18 06:39:24;;;;;;;;;5.20;5.20;;;;;;;;5025185;28;8854;-73
2022/06/18 06:41:52;;;;;;;;;6.20;6.00;;;;;;;;5031920;28;8842;-77
2022/06/18 06:44:19;;;;;;;;;5.00;5.00;;;;;;;;5022117;28;8861;-78
2022/06/18 06:46:47;;;;;;;;;5.60;5.60;;;;;;;;5019777;28;8858;-78
2022/06/18 06:49:14;;;;;;;;;4.80;4.80;;;;;;;;5023895;28;8876;-78
2022/06/18 06:51:41;;;;;;;;;6.00;6.00;;;;;;;;5004583;28;8992;-78
2022/06/18 06:54:09;;;;;;;;;6.40;6.40;;;;;;;;5025029;28;8874;-76
2022/06/18 06:59:35;;;;;;;;;6.80;6.80;;;;;;;;4975414;28;8887;-78
2022/06/18 07:02:03;;;;;;;;;6.80;6.80;;;;;;;;5005392;28;8892;-75
2022/06/18 07:04:30;;;;;;;;;5.40;5.40;;;;;;;;5017558;28;8911;-77
2022/06/18 07:06:57;;;;;;;;;6.00;6.00;;;;;;;;5018401;28;8886;-76
2022/06/18 07:09:25;;;;;;;;;9.40;7.20;;;;;;;;5019656;28;8985;-81
2022/06/18 07:11:53;;;;;;;;;6.00;6.00;;;;;;;;5018407;28;8927;-78
2022/06/18 07:14:20;;;;;;;;;4.80;4.80;;;;;;;;5019284;28;8875;-74
2022/06/18 07:16:51;;;;;;;;;5.60;5.60;;;;;;;;5017953;28;8864;-77
2022/06/18 07:19:18;;;;;;;;;5.40;5.40;;;;;;;;5017113;28;8856;-76
2022/06/18 07:21:46;;;;;;;;;5.00;5.00;;;;;;;;5019363;28;8900;-83
2022/06/18 07:24:14;;;;;;;;;5.80;5.80;;;;;;;;5016611;28;8864;-83
2022/06/18 07:26:43;;;;;;;;;6.00;6.00;;;;;;;;5014506;28;8937;-84
2022/06/18 07:29:11;;;;;;;;;4.80;4.60;;;;;;;;5009564;28;8985;-78
2022/06/18 07:31:38;;;;;;;;;6.00;6.00;;;;;;;;5018388;28;8890;-75
2022/06/18 07:34:07;;;;;;;;;6.00;6.00;;;;;;;;5019920;28;9041;-76
2022/06/18 07:36:35;;;;;;;;;5.80;5.80;;;;;;;;5020358;28;8854;-76
2022/06/18 07:39:02;;;;;;;;;7.00;5.00;;;;;;;;5020177;28;8854;-75
2022/06/18 07:41:39;;;;;;;;;5.20;5.20;;;;;;;;5034314;28;8846;-75
2022/06/18 07:44:06;;;;;;;;;5.80;5.80;;;;;;;;5026639;28;8862;-78
2022/06/18 07:46:34;;;;;;;;;5.00;5.00;;;;;;;;5013520;28;9811;-76
2022/06/18 07:49:01;;;;;;;;;6.40;6.40;;;;;;;;5007298;28;8870;-76
2022/06/18 07:51:30;;;;;;;;;6.00;6.00;;;;;;;;5021761;28;8893;-81
2022/06/18 07:54:00;;;;;;;;;6.20;6.20;;;;;;;;5027487;28;8858;-84
2022/06/18 07:56:28;;;;;;;;;7.20;6.60;;;;;;;;5037185;28;8917;-82
2022/06/18 07:58:58;;;;;;;;;7.60;5.80;;;;;;;;5033951;28;8856;-80
2022/06/18 08:01:26;;;;;;;;;5.60;5.60;;;;;;;;5021803;28;8939;-77
2022/06/18 08:03:53;;;;;;;;;8.00;6.20;;;;;;;;5026538;28;8893;-78
2022/06/18 08:06:20;;;;;;;;;5.40;5.20;;;;;;;;5021237;28;8980;-78
2022/06/18 08:08:49;;;;;;;;;4.00;4.00;;;;;;;;5018120;28;8908;-78
2022/06/18 08:11:18;;;;;;;;;6.00;6.00;;;;;;;;5025934;28;8855;-79
2022/06/18 08:13:46;;;;;;;;;6.00;6.00;;;;;;;;5022874;28;8876;-77
2022/06/18 08:16:16;;;;;;;;;6.40;6.40;;;;;;;;5022217;28;8858;-77
2022/06/18 08:18:44;;;;;;;;;6.20;6.20;;;;;;;;5004214;28;9587;-75
2022/06/18 08:21:15;;;;;;;;;6.00;6.00;;;;;;;;5022161;28;8858;-77
2022/06/18 08:23:42;;;;;;;;;5.40;5.40;;;;;;;;5020746;28;8961;-78
2022/06/18 08:26:11;;;;;;;;;6.20;5.80;;;;;;;;5021864;28;8874;-78
2022/06/18 08:28:40;;;;;;;;;7.00;6.80;;;;;;;;5017722;28;8881;-78
2022/06/18 08:31:09;;;;;;;;;7.20;5.60;;;;;;;;4996824;28;8876;-78
2022/06/18 08:33:37;;;;;;;;;7.40;6.60;;;;;;;;5013053;28;8854;-78
2022/06/18 08:36:08;;;;;;;;;8.00;6.80;;;;;;;;5015338;28;8863;-77
2022/06/18 08:38:36;;;;;;;;;6.60;6.60;;;;;;;;5022244;28;8862;-78
2022/06/18 08:41:32;;;;;;;;;8.60;8.60;;;;;;;;5022622;28;8876;-79
2022/06/18 08:44:21;;;;;;;;;6.00;6.00;;;;;;;;5018709;28;8902;-77
2022/06/18 08:46:55;;;;;;;;;6.00;6.00;;;;;;;;5003280;28;8880;-79
2022/06/18 08:49:44;;;;;;;;;6.00;6.00;;;;;;;;5013156;28;8880;-82
2022/06/18 08:52:22;;;;;;;;;6.80;6.80;;;;;;;;5020767;28;8868;-77
2022/06/18 08:54:56;;;;;;;;;5.00;5.00;;;;;;;;5005127;28;8852;-81
2022/06/18 08:57:29;;;;;;;;;6.00;6.00;;;;;;;;5022021;28;8854;-85
2022/06/18 09:00:12;;;;;;;;;5.60;5.60;;;;;;;;5023216;28;8879;-80
2022/06/18 09:02:44;;;;;;;;;6.40;6.40;;;;;;;;5017400;28;8903;-82
2022/06/18 09:05:20;;;;;;;;;7.00;7.00;;;;;;;;5020400;28;10203;-84
2022/06/18 09:08:00;;;;;;;;;6.00;6.00;;;;;;;;5022024;28;8870;-82
2022/06/18 09:10:34;;;;;;;;;6.60;6.60;;;;;;;;5009126;28;8854;-82
2022/06/18 09:13:06;;;;;;;;;5.80;5.00;;;;;;;;5019299;28;9402;-80
2022/06/18 09:15:38;;;;;;;;;6.40;6.00;;;;;;;;5018499;28;8998;-77
2022/06/18 09:18:14;;;;;;;;;7.00;6.20;;;;;;;;5020654;28;8870;-83
2022/06/18 09:20:48;;;;;;;;;8.20;8.20;;;;;;;;5013895;28;8860;-81
2022/06/18 09:23:18;;;;;;;;;12.60;10.00;;;;;;;;5025966;28;8884;-80
2022/06/18 09:25:49;;;;;;;;;6.40;6.40;;;;;;;;5021582;28;8904;-79
2022/06/18 09:28:20;;;;;;;;;8.00;8.00;;;;;;;;5018158;28;8864;-76
2022/06/18 09:30:54;;;;;;;;;7.00;7.00;;;;;;;;5017821;28;8804;-81
2022/06/18 09:33:25;;;;;;;;;6.00;6.00;;;;;;;;5023363;28;8873;-81
2022/06/18 09:35:55;;;;;;;;;7.40;7.40;;;;;;;;5025388;28;8882;-78
2022/06/18 09:38:24;;;;;;;;;6.00;6.00;;;;;;;;5019210;28;8832;-80
2022/06/18 09:40:53;;;;;;;;;6.20;6.20;;;;;;;;5004645;28;8879;-84
2022/06/18 09:43:28;;;;;;;;;6.80;6.80;;;;;;;;5025486;28;8878;-80
2022/06/18 09:46:02;;;;;;;;;4.00;4.00;;;;;;;;5020031;28;8858;-82
2022/06/18 09:48:29;;;;;;;;;4.80;4.80;;;;;;;;5023777;28;10086;-80
2022/06/18 09:50:59;;;;;;;;;4.80;4.40;;;;;;;;5026090;28;9347;-80
2022/06/18 09:53:28;;;;;;;;;6.60;6.60;;;;;;;;5016814;28;8904;-85
2022/06/18 09:56:00;;;;;;;;;6.00;6.00;;;;;;;;5022553;28;8958;-84
2022/06/18 09:58:30;;;;;;;;;7.20;6.00;;;;;;;;5021426;28;8880;-85
2022/06/18 10:01:01;;;;;;;;;6.80;6.80;;;;;;;;5017833;28;8821;-86
2022/06/18 10:09:06;;;;;;;;;5.60;5.60;;;;;;;;5024713;28;8854;-87
2022/06/18 10:11:34;;;;;;;;;8.60;6.80;;;;;;;;5019983;28;8862;-80
2022/06/18 10:14:04;;;;;;;;;6.60;5.20;;;;;;;;5022340;28;8878;-87
2022/06/18 10:16:44;;;;;;;;;6.80;6.80;;;;;;;;5018537;28;8889;-85
2022/06/18 10:19:16;;;;;;;;;6.60;6.60;;;;;;;;5020715;28;8968;-84
2022/06/18 10:21:50;;;;;;;;;5.60;5.60;;;;;;;;5001758;28;8883;-80
2022/06/18 10:24:23;;;;;;;;;5.00;5.00;;;;;;;;5023743;28;8874;-83
2022/06/18 10:26:55;;;;;;;;;7.40;6.80;;;;;;;;5021841;28;8866;-81
2022/06/18 10:29:32;;;;;;;;;8.80;8.80;;;;;;;;5028449;28;8856;-84
2022/06/18 10:32:11;;;;;;;;;6.80;6.80;;;;;;;;5011102;28;8807;-83
2022/06/18 10:34:51;;;;;;;;;6.20;6.20;;;;;;;;5029709;28;9765;-83
2022/06/18 10:37:23;;;;;;;;;5.60;5.60;;;;;;;;5027179;28;9715;-85
2022/06/18 10:40:02;;;;;;;;;7.00;7.00;;;;;;;;5031375;28;8858;-86
2022/06/18 10:42:41;;;;;;;;;6.80;6.80;;;;;;;;5028681;28;8866;-84
2022/06/18 10:45:14;;;;;;;;;9.20;7.40;;;;;;;;5020894;28;8868;-85
2022/06/18 10:47:47;;;;;;;;;5.80;5.80;;;;;;;;5029959;28;8834;-83
2022/06/18 10:50:18;;;;;;;;;6.20;6.20;;;;;;;;5015112;28;8906;-85
2022/06/18 10:52:46;;;;;;;;;6.80;6.80;;;;;;;;5028189;28;8866;-86
2022/06/18 10:55:17;;;;;;;;;5.00;5.00;;;;;;;;5030506;28;8894;-86
2022/06/18 10:57:48;;;;;;;;;9.60;8.20;;;;;;;;5012088;28;8902;-85
2022/06/18 11:00:19;;;;;;;;;7.20;7.20;;;;;;;;5016782;28;8880;-84
2022/06/18 11:02:48;;;;;;;;;6.20;6.20;;;;;;;;5025061;28;8879;-85
2022/06/18 11:05:22;;;;;;;;;5.60;5.60;;;;;;;;5023601;28;8842;-88
2022/06/18 11:07:51;;;;;;;;;6.00;6.00;;;;;;;;5019746;28;8924;-85
2022/06/18 11:10:38;;;;;;;;;5.40;5.40;;;;;;;;5005358;28;8970;-86
2022/06/18 11:13:17;;;;;;;;;5.25;4.75;;;;;;;;5018067;28;8902;-82
2022/06/18 11:15:44;;;;;;;;;6.80;6.80;;;;;;;;5023748;28;8858;-88
2022/06/18 11:18:19;;;;;;;;;7.80;7.80;;;;;;;;5006241;28;8903;-88
2022/06/18 11:21:03;;;;;;;;;10.20;8.00;;;;;;;;5019012;28;8866;-87
2022/06/18 11:23:32;;;;;;;;;6.00;6.00;;;;;;;;5019662;28;8971;-83
2022/06/18 11:25:59;;;;;;;;;7.60;7.60;;;;;;;;5024371;28;8868;-80
2022/06/18 11:28:29;;;;;;;;;9.00;7.00;;;;;;;;5029212;28;8980;-78
2022/06/18 11:30:58;;;;;;;;;6.50;6.00;;;;;;;;5027717;28;8835;-78
2022/06/18 11:33:33;;;;;;;;;7.40;6.80;;;;;;;;5012755;28;8882;-78
2022/06/18 11:36:09;;;;;;;;;8.00;6.80;;;;;;;;5027138;28;8876;-78
2022/06/18 11:38:37;;;;;;;;;5.75;5.75;;;;;;;;5019590;28;8890;-81
2022/06/18 11:41:13;;;;;;;;;6.25;6.00;;;;;;;;5018973;28;10290;-80
2022/06/18 11:43:50;;;;;;;;;8.00;7.25;;;;;;;;5025049;28;8939;-80
2022/06/18 11:46:21;;;;;;;;;8.25;6.00;;;;;;;;5025657;28;8888;-82
2022/06/18 11:48:56;;;;;;;;;6.50;6.50;;;;;;;;5025649;28;8861;-83
2022/06/18 11:51:28;;;;;;;;;8.00;7.00;;;;;;;;5016843;28;8848;-81
2022/06/18 11:54:05;;;;;;;;;7.00;5.75;;;;;;;;5020986;28;8989;-80
2022/06/18 11:56:38;;;;;;;;;10.40;8.80;;;;;;;;5024310;28;8854;-81
2022/06/18 11:59:15;;;;;;;;;5.75;5.75;;;;;;;;5016967;28;9614;-80
2022/06/18 12:01:46;;;;;;;;;6.25;6.25;;;;;;;;5022517;28;8896;-80
2022/06/18 12:04:19;;;;;;;;;7.25;6.75;;;;;;;;5025573;28;8846;-81
2022/06/18 12:06:52;;;;;;;;;7.50;7.50;;;;;;;;5021849;28;8837;-85
2022/06/18 12:09:20;;;;;;;;;7.75;7.75;;;;;;;;5023474;28;9647;-78
2022/06/18 12:12:03;;;;;;;;;7.50;7.50;;;;;;;;5022973;28;8861;-80
2022/06/18 12:14:34;;;;;;;;;8.25;8.25;;;;;;;;5023830;28;8882;-81
2022/06/18 12:17:04;;;;;;;;;8.75;8.00;;;;;;;;5026004;28;8899;-79
2022/06/18 12:19:43;;;;;;;;;9.25;9.25;;;;;;;;5022072;28;8969;-79
2022/06/18 12:22:23;;;;;;;;;9.75;9.00;;;;;;;;5014889;28;8846;-78
2022/06/18 12:25:00;;;;;;;;;7.75;7.00;;;;;;;;5015287;28;8966;-78
2022/06/18 12:27:29;;;;;;;;;8.50;7.75;;;;;;;;5014938;28;8850;-76
2022/06/18 12:30:07;;;;;;;;;7.25;5.50;;;;;;;;5021601;28;8851;-75
2022/06/18 12:32:44;;;;;;;;;8.25;5.50;;;;;;;;5019010;28;8935;-77
2022/06/18 12:35:20;;;;;;;;;6.50;5.00;;;;;;;;5024586;28;8878;-74
2022/06/18 12:37:57;;;;;;;;;7.25;5.75;;;;;;;;5020504;28;8886;-79
2022/06/18 12:40:32;;;;;;;;;6.50;6.50;;;;;;;;5023682;28;8863;-78
2022/06/18 12:43:06;;;;;;;;;6.75;6.00;;;;;;;;4987602;28;8892;-78
2022/06/18 12:45:40;;;;;;;;;5.50;4.50;;;;;;;;5005053;28;8874;-79
2022/06/18 12:48:14;;;;;;;;;7.00;5.25;;;;;;;;5022456;28;8870;-78
2022/06/18 12:50:52;;;;;;;;;6.50;6.00;;;;;;;;5022870;28;8879;-78
2022/06/18 12:53:32;;;;;;;;;8.75;5.50;;;;;;;;5021407;28;8878;-78
2022/06/18 12:56:05;;;;;;;;;5.00;5.00;;;;;;;;5025011;28;8892;-78
2022/06/18 12:58:42;;;;;;;;;6.25;4.50;;;;;;;;5016225;28;9413;-78
2022/06/18 13:01:14;;;;;;;;;5.25;4.25;;;;;;;;5022283;28;8793;-78
2022/06/18 13:03:59;;;;;;;;;4.75;4.75;;;;;;;;5020979;28;8864;-77
2022/06/18 13:06:36;;;;;;;;;4.50;3.50;;;;;;;;5017104;28;8876;-78
2022/06/18 13:09:13;;;;;;;;;7.00;4.50;;;;;;;;5025042;28;8868;-79
2022/06/18 13:11:51;;;;;;;;;9.50;5.50;;;;;;;;5023162;28;8866;-78
2022/06/18 13:14:40;;;;;;;;;5.50;3.50;;;;;;;;5022459;28;8866;-81
2022/06/18 13:17:14;;;;;;;;;5.00;3.25;;;;;;;;5020787;28;8848;-79
2022/06/18 13:19:45;;;;;;;;;3.50;3.50;;;;;;;;5027372;28;8943;-79
2022/06/18 13:22:14;;;;;;;;;5.50;4.75;;;;;;;;5025531;28;9638;-80
2022/06/18 13:30:23;;;;;;;;;3.25;3.25;;;;;;;;5019727;28;8842;-79
2022/06/18 13:32:56;;;;;;;;;5.00;5.00;;;;;;;;5020013;28;8936;-79
2022/06/18 13:35:30;;;;;;;;;10.75;6.25;;;;;;;;5017579;28;8859;-80
2022/06/18 13:38:06;;;;;;;;;4.75;4.50;;;;;;;;5029768;28;8839;-79
2022/06/18 13:40:39;;;;;;;;;6.25;4.25;;;;;;;;5023615;28;8854;-80
2022/06/18 13:43:12;;;;;;;;;7.50;4.50;;;;;;;;5015148;28;8903;-80
2022/06/18 13:45:49;;;;;;;;;6.75;5.75;;;;;;;;5013286;28;9683;-80
2022/06/18 13:48:32;;;;;;;;;5.00;4.25;;;;;;;;5008275;28;9653;-80
2022/06/18 13:50:59;;;;;;;;;6.25;2.75;;;;;;;;5027010;28;8865;-78
2022/06/18 13:53:31;;;;;;;;;5.00;3.25;;;;;;;;5030697;28;8922;-78
2022/06/18 13:55:59;;;;;;;;;9.50;5.50;;;;;;;;5025879;28;8866;-79
2022/06/18 13:58:29;;;;;;;;;6.75;4.00;;;;;;;;5032650;28;8850;-78
2022/06/18 14:01:10;;;;;;;;;6.50;5.00;;;;;;;;5026957;28;8815;-78
2022/06/18 14:03:40;;;;;;;;;5.25;5.00;;;;;;;;5035512;28;8857;-77
2022/06/18 14:06:10;;;;;;;;;3.50;3.25;;;;;;;;5025301;28;8879;-77
2022/06/18 14:08:50;;;;;;;;;6.25;4.00;;;;;;;;5029000;28;9613;-77
2022/06/18 14:11:31;;;;;;;;;0.25;0.25;;;;;;;;5036573;28;8876;-77
2022/06/18 14:13:58;;;;;;;;;5.25;4.75;;;;;;;;5032521;28;8970;-77
2022/06/18 14:16:33;;;;;;;;;6.75;3.25;;;;;;;;5037456;28;8914;-77
2022/06/18 14:19:12;;;;;;;;;3.00;3.00;;;;;;;;5033438;28;8892;-77
2022/06/18 14:21:41;;;;;;;;;6.50;3.75;;;;;;;;5024055;28;8904;-78
2022/06/18 14:24:11;;;;;;;;;7.75;5.00;;;;;;;;5033307;28;8862;-78
2022/06/18 14:26:41;;;;;;;;;3.50;2.75;;;;;;;;5030813;28;8937;-78
2022/06/18 14:29:09;;;;;;;;;4.25;4.25;;;;;;;;5014944;28;9672;-77
2022/06/18 14:31:43;;;;;;;;;8.25;3.75;;;;;;;;5028470;28;8810;-77
2022/06/18 14:34:15;;;;;;;;;3.50;3.50;;;;;;;;5032977;28;8858;-77
2022/06/18 14:36:44;;;;;;;;;5.50;5.50;;;;;;;;5026985;28;8897;-77
2022/06/18 14:39:22;;;;;;;;;4.50;3.25;;;;;;;;5031280;28;8926;-76
2022/06/18 14:41:55;;;;;;;;;7.25;5.25;;;;;;;;5029592;28;8863;-78
2022/06/18 14:44:41;;;;;;;;;6.00;4.00;;;;;;;;5029660;28;8870;-77
2022/06/18 14:47:48;;;;;;;;;8.00;3.75;;;;;;;;5021699;28;8852;-77
2022/06/18 14:50:34;;;;;;;;;6.00;3.25;;;;;;;;5022170;28;8865;-78
2022/06/18 14:53:13;;;;;;;;;5.00;5.00;;;;;;;;5032247;28;8871;-78
2022/06/18 14:56:00;;;;;;;;;8.00;5.00;;;;;;;;5009298;28;8868;-77
2022/06/18 14:58:45;;;;;;;;;5.00;4.00;;;;;;;;5021139;28;8882;-79
2022/06/18 15:01:21;;;;;;;;;7.00;5.00;;;;;;;;5029139;28;8847;-78
2022/06/18 15:03:55;;;;;;;;;6.00;6.00;;;;;;;;5024284;28;8862;-77
2022/06/18 15:06:22;;;;;;;;;7.50;4.00;;;;;;;;5010533;28;8888;-77
2022/06/18 15:08:55;;;;;;;;;5.00;5.00;;;;;;;;5028292;28;8858;-78
2022/06/18 15:11:25;;;;;;;;;6.00;4.75;;;;;;;;5029621;28;8876;-77
2022/06/18 15:13:54;;;;;;;;;4.50;4.00;;;;;;;;5030438;28;8996;-78
2022/06/18 15:16:48;;;;;;;;;8.75;5.25;;;;;;;;5030902;28;8872;-76
2022/06/18 15:19:27;;;;;;;;;8.00;4.75;;;;;;;;5026959;28;8880;-78
2022/06/18 15:21:57;;;;;;;;;10.25;7.25;;;;;;;;5029573;28;8842;-78
2022/06/18 15:27:14;;;;;;;;;6.00;4.50;;;;;;;;5025144;28;8969;-78
2022/06/18 15:29:45;;;;;;;;;7.75;5.00;;;;;;;;5031242;28;8973;-78
2022/06/18 15:32:17;;;;;;;;;4.00;4.00;;;;;;;;5032789;28;8805;-79
2022/06/18 15:34:45;;;;;;;;;4.75;3.25;;;;;;;;5024184;28;8880;-77
2022/06/18 15:37:16;;;;;;;;;5.75;4.25;;;;;;;;5025252;28;9013;-79
2022/06/18 15:39:52;;;;;;;;;5.50;3.25;;;;;;;;5030670;28;8840;-78
2022/06/18 15:42:22;;;;;;;;;7.00;5.00;;;;;;;;5024756;28;8862;-77
2022/06/18 15:44:54;;;;;;;;;4.00;4.00;;;;;;;;5035367;28;8874;-77